Time;durP1;ratioP1;P1;durP2;ratioP2;P2;SDS_P1;SDS_P2;PMS_P1;PMS_P2;Temp;Humidity;BMP_temperature;BMP_pressure;BME280_temperature;BME280_humidity;BME280_pressure;Samples;Min_cycle;Max_cycle;Signal;HPM_P1;HPM_P2
2022/03/08 00:11:37;;;;;;;9.00;6.90;;;1.30;99.90;;;;;;5031602;28;20821;-60
2022/03/08 00:14:04;;;;;;;10.77;6.35;;;1.30;99.90;;;;;;5042227;28;20429;-60
2022/03/08 00:16:31;;;;;;;8.27;5.20;;;1.30;99.90;;;;;;5050387;28;20475;-60
2022/03/08 00:18:58;;;;;;;10.35;6.20;;;1.30;99.90;;;;;;5048985;28;20536;-60
2022/03/08 00:21:25;;;;;;;10.23;5.88;;;1.30;99.90;;;;;;5049594;28;20809;-59
2022/03/08 00:23:52;;;;;;;9.70;6.43;;;1.30;99.90;;;;;;5052441;28;20917;-60
2022/03/08 00:26:19;;;;;;;8.67;6.33;;;1.30;99.90;;;;;;5050792;28;20513;-60
2022/03/08 00:28:48;;;;;;;11.00;6.93;;;1.30;99.90;;;;;;5051326;28;20442;-61
2022/03/08 00:31:15;;;;;;;10.60;7.20;;;1.40;99.90;;;;;;5045344;28;20519;-61
2022/03/08 00:33:42;;;;;;;13.45;7.75;;;1.50;99.90;;;;;;5047637;28;20889;-61
2022/03/08 00:36:09;;;;;;;11.27;7.93;;;1.50;99.90;;;;;;5052570;28;20502;-61
2022/03/08 00:38:36;;;;;;;10.90;6.70;;;1.50;99.90;;;;;;5046964;28;20437;-59
2022/03/08 00:41:03;;;;;;;9.38;6.63;;;1.50;99.90;;;;;;5045629;28;20437;-59
2022/03/08 00:43:30;;;;;;;9.00;6.30;;;1.40;99.90;;;;;;5052439;28;20457;-59
2022/03/08 00:45:59;;;;;;;11.77;6.32;;;1.50;99.90;;;;;;5053132;28;21006;-59
2022/03/08 00:48:26;;;;;;;10.65;6.75;;;1.60;99.90;;;;;;5051126;28;20473;-59
2022/03/08 00:50:53;;;;;;;10.15;7.30;;;1.60;99.90;;;;;;5050615;28;20425;-59
2022/03/08 00:53:20;;;;;;;10.03;6.33;;;1.50;99.90;;;;;;5051586;28;20900;-59
2022/03/08 00:55:47;;;;;;;11.18;7.72;;;1.50;99.90;;;;;;5048883;28;20524;-59
2022/03/08 00:58:14;;;;;;;9.35;6.38;;;1.40;99.90;;;;;;5051585;28;20465;-60
2022/03/08 01:00:41;;;;;;;11.10;7.38;;;1.30;99.90;;;;;;5047798;28;20498;-59
2022/03/08 01:03:09;;;;;;;9.77;6.50;;;1.30;99.90;;;;;;5051823;28;20811;-60
2022/03/08 01:05:37;;;;;;;9.93;6.20;;;1.30;99.90;;;;;;5048867;28;20465;-60
2022/03/08 01:08:05;;;;;;;10.05;7.50;;;1.30;99.90;;;;;;5051128;28;20457;-59
2022/03/08 01:10:33;;;;;;;11.18;6.88;;;1.40;99.90;;;;;;5044503;28;20504;-60
2022/03/08 01:13:01;;;;;;;9.73;6.80;;;1.30;99.90;;;;;;5059579;28;20884;-59
2022/03/08 01:15:28;;;;;;;11.13;7.47;;;1.20;99.90;;;;;;5054090;28;20784;-59
2022/03/08 01:17:56;;;;;;;10.68;6.70;;;1.20;99.90;;;;;;5053739;28;20500;-59
2022/03/08 01:20:25;;;;;;;11.45;7.07;;;1.20;99.90;;;;;;5053982;28;20425;-59
2022/03/08 01:22:53;;;;;;;10.57;7.15;;;1.20;99.90;;;;;;5052174;28;20468;-59
2022/03/08 01:25:21;;;;;;;10.00;6.93;;;1.20;99.90;;;;;;5054576;28;20550;-60
2022/03/08 01:27:48;;;;;;;10.43;6.35;;;1.10;99.90;;;;;;5053675;28;20803;-59
2022/03/08 01:30:17;;;;;;;7.30;6.28;;;1.10;99.90;;;;;;5047992;28;20439;-60
2022/03/08 01:32:44;;;;;;;8.55;5.55;;;1.10;99.90;;;;;;5040425;28;20516;-60
2022/03/08 01:35:12;;;;;;;10.38;6.50;;;1.20;99.90;;;;;;5038470;28;20462;-60
2022/03/08 01:37:40;;;;;;;12.57;7.50;;;1.20;99.90;;;;;;5042415;28;20494;-59
2022/03/08 01:40:14;;;;;;;11.38;6.63;;;1.10;99.90;;;;;;5043884;28;20546;-59
2022/03/08 01:42:42;;;;;;;11.32;7.00;;;1.20;99.90;;;;;;5052605;28;20421;-59
2022/03/08 01:45:10;;;;;;;10.73;6.88;;;1.10;99.90;;;;;;5053697;28;20417;-59
2022/03/08 01:47:37;;;;;;;10.25;6.70;;;1.10;99.90;;;;;;5051918;28;20912;-59
2022/03/08 01:50:06;;;;;;;14.77;7.25;;;1.00;99.90;;;;;;5053893;28;20706;-60
2022/03/08 01:52:34;;;;;;;9.23;6.32;;;0.90;99.90;;;;;;5053796;28;20492;-59
2022/03/08 01:55:03;;;;;;;8.50;5.85;;;0.90;99.90;;;;;;5046047;28;20453;-60
2022/03/08 01:57:30;;;;;;;9.70;6.43;;;0.80;99.90;;;;;;5054119;28;20456;-59
2022/03/08 01:59:57;;;;;;;9.20;6.07;;;0.80;99.90;;;;;;5049606;28;20482;-59
2022/03/08 02:02:24;;;;;;;11.10;6.50;;;0.80;99.90;;;;;;5051194;28;20417;-58
2022/03/08 02:04:52;;;;;;;9.40;6.00;;;0.80;99.90;;;;;;5048420;28;20569;-59
2022/03/08 02:07:19;;;;;;;11.57;6.55;;;0.70;99.90;;;;;;5056084;28;20841;-59
2022/03/08 02:09:46;;;;;;;9.95;7.03;;;0.70;99.90;;;;;;5050101;28;20413;-60
2022/03/08 02:12:15;;;;;;;12.25;7.10;;;0.60;99.90;;;;;;5051128;28;20422;-59
2022/03/08 02:14:42;;;;;;;9.70;6.68;;;0.70;99.90;;;;;;5057091;28;20479;-59
2022/03/08 02:17:10;;;;;;;10.35;6.53;;;0.70;99.90;;;;;;5050117;28;20429;-59
2022/03/08 02:19:37;;;;;;;10.52;5.10;;;0.70;99.90;;;;;;5056210;28;21012;-60
2022/03/08 02:22:05;;;;;;;8.70;5.93;;;0.80;99.90;;;;;;5054327;28;20523;-59
2022/03/08 02:24:33;;;;;;;9.80;5.15;;;0.80;99.90;;;;;;5050922;28;20504;-60
2022/03/08 02:27:00;;;;;;;10.57;5.60;;;0.90;99.90;;;;;;5055376;28;20432;-59
2022/03/08 02:29:28;;;;;;;7.07;4.80;;;0.90;99.90;;;;;;5054817;28;20881;-60
2022/03/08 02:31:55;;;;;;;8.50;4.93;;;0.90;99.90;;;;;;5046318;28;20444;-59
2022/03/08 02:34:22;;;;;;;7.50;5.37;;;0.90;99.90;;;;;;5048367;28;20471;-59
2022/03/08 02:37:00;;;;;;;8.32;4.75;;;0.80;99.90;;;;;;5056361;28;20510;-59
2022/03/08 02:39:29;;;;;;;9.13;5.10;;;0.80;99.90;;;;;;5055607;28;20512;-58
2022/03/08 02:41:56;;;;;;;6.85;4.30;;;0.90;99.90;;;;;;5054727;28;20502;-58
2022/03/08 02:44:22;;;;;;;9.27;6.15;;;0.90;99.90;;;;;;5056038;28;20861;-58
2022/03/08 02:46:49;;;;;;;8.15;5.10;;;1.00;99.90;;;;;;5054370;28;20530;-58
2022/03/08 02:49:16;;;;;;;8.37;6.17;;;0.90;99.90;;;;;;5056524;28;20543;-59
2022/03/08 02:51:43;;;;;;;11.30;5.77;;;0.90;99.90;;;;;;5054972;28;20461;-58
2022/03/08 02:54:10;;;;;;;9.57;5.50;;;0.80;99.90;;;;;;5056872;28;20856;-58
2022/03/08 02:56:39;;;;;;;8.85;5.55;;;0.80;99.90;;;;;;5052543;28;20441;-59
2022/03/08 02:59:06;;;;;;;8.30;5.32;;;0.90;99.90;;;;;;5055157;28;20964;-60
2022/03/08 03:01:33;;;;;;;7.90;4.73;;;0.80;99.90;;;;;;5054225;28;20456;-59
2022/03/08 03:04:00;;;;;;;9.25;5.05;;;0.80;99.90;;;;;;5053284;28;20508;-59
2022/03/08 03:06:27;;;;;;;8.38;5.22;;;0.90;99.90;;;;;;5053130;28;20793;-60
2022/03/08 03:08:54;;;;;;;9.07;5.35;;;0.80;99.90;;;;;;5049537;28;20908;-60
2022/03/08 03:11:20;;;;;;;8.95;5.60;;;0.80;99.90;;;;;;5054838;28;20436;-60
2022/03/08 03:13:49;;;;;;;10.60;6.00;;;0.60;99.90;;;;;;5052996;28;20524;-59
2022/03/08 03:16:16;;;;;;;9.82;5.30;;;0.60;99.90;;;;;;5044929;28;20545;-60
2022/03/08 03:18:42;;;;;;;9.10;6.25;;;0.50;99.90;;;;;;5055956;28;20433;-59
2022/03/08 03:21:09;;;;;;;8.05;4.75;;;0.40;99.90;;;;;;5055278;28;20429;-60
2022/03/08 03:23:36;;;;;;;7.40;4.97;;;0.50;99.90;;;;;;5054778;28;20480;-59
2022/03/08 03:26:03;;;;;;;7.80;5.07;;;0.50;99.90;;;;;;5053884;28;20524;-59
2022/03/08 03:28:30;;;;;;;7.55;4.43;;;0.60;99.90;;;;;;5054308;28;20512;-59
2022/03/08 03:30:59;;;;;;;7.78;5.15;;;0.60;99.90;;;;;;5053172;28;20502;-60
2022/03/08 03:33:26;;;;;;;8.27;4.30;;;0.60;99.90;;;;;;5051641;28;20615;-59
2022/03/08 03:35:53;;;;;;;7.37;5.77;;;0.50;99.90;;;;;;5053024;28;20811;-59
2022/03/08 03:38:20;;;;;;;10.32;5.40;;;0.30;99.90;;;;;;5053866;28;20789;-59
2022/03/08 03:40:47;;;;;;;7.15;5.13;;;0.30;99.90;;;;;;5052167;28;20437;-60
2022/03/08 03:43:14;;;;;;;9.80;5.43;;;0.20;99.90;;;;;;5042327;28;20528;-59
2022/03/08 03:45:41;;;;;;;8.07;5.50;;;0.20;99.90;;;;;;5051440;28;20531;-59
2022/03/08 03:48:09;;;;;;;9.45;5.10;;;0.10;99.90;;;;;;5055275;28;20975;-59
2022/03/08 03:50:36;;;;;;;9.50;5.57;;;0.10;1.00;;;;;;5049175;28;20433;-58
2022/03/08 03:53:03;;;;;;;11.82;6.35;;;0.00;1.00;;;;;;5050098;28;20464;-58
2022/03/08 03:55:30;;;;;;;9.80;5.87;;;0.00;1.00;;;;;;5047616;28;20505;-58
2022/03/08 03:57:57;;;;;;;10.20;6.45;;;0.00;1.00;;;;;;5055326;28;20512;-59
2022/03/08 04:00:24;;;;;;;10.68;6.32;;;-0.10;1.00;;;;;;5052156;28;20536;-58
2022/03/08 04:02:51;;;;;;;8.00;5.45;;;-0.20;1.00;;;;;;5051494;28;20941;-59
2022/03/08 04:05:20;;;;;;;11.32;5.90;;;-0.20;1.00;;;;;;5052386;28;20522;-58
2022/03/08 04:07:47;;;;;;;10.35;6.00;;;-0.30;1.00;;;;;;5055248;28;20776;-59
2022/03/08 04:10:16;;;;;;;10.40;5.90;;;-0.20;1.00;;;;;;5047771;28;20931;-59
2022/03/08 04:12:43;;;;;;;10.37;6.17;;;-0.10;1.00;;;;;;5048795;28;20520;-58
2022/03/08 04:15:11;;;;;;;6.50;4.90;;;-0.20;1.00;;;;;;5052693;28;20508;-58
2022/03/08 04:17:38;;;;;;;8.07;5.47;;;-0.20;1.00;;;;;;5047225;28;20439;-58
2022/03/08 04:20:07;;;;;;;9.40;5.67;;;-0.20;1.00;;;;;;5051087;28;20555;-58
2022/03/08 04:22:35;;;;;;;9.73;5.95;;;-0.20;1.00;;;;;;5052988;28;20453;-58
2022/03/08 04:25:02;;;;;;;8.77;5.40;;;-0.30;1.00;;;;;;5043704;28;20526;-58
2022/03/08 04:27:29;;;;;;;9.32;5.28;;;-0.30;1.00;;;;;;5049779;28;20449;-58
2022/03/08 04:29:56;;;;;;;10.82;5.90;;;-0.20;1.00;;;;;;5051816;28;20433;-59
2022/03/08 04:32:23;;;;;;;9.18;5.70;;;-0.10;1.00;;;;;;5046621;28;20512;-59
2022/03/08 04:34:50;;;;;;;9.45;5.28;;;-0.10;1.00;;;;;;5049125;28;20423;-59
2022/03/08 04:37:17;;;;;;;9.15;5.55;;;-0.10;1.00;;;;;;5049629;28;20538;-58
2022/03/08 04:39:45;;;;;;;9.87;5.37;;;-0.10;1.00;;;;;;5048137;28;20427;-59
2022/03/08 04:42:12;;;;;;;8.43;5.75;;;-0.10;1.00;;;;;;5052731;28;20800;-59
2022/03/08 04:44:39;;;;;;;8.57;5.15;;;-0.20;1.00;;;;;;5051457;28;20450;-58
2022/03/08 04:47:06;;;;;;;8.93;4.70;;;-0.30;1.00;;;;;;5053038;28;20432;-59
2022/03/08 04:49:33;;;;;;;7.57;4.60;;;-0.20;1.00;;;;;;5048145;28;20537;-59
2022/03/08 04:52:00;;;;;;;7.13;4.75;;;-0.10;1.00;;;;;;5047709;28;20471;-59
2022/03/08 04:54:27;;;;;;;9.05;5.38;;;0.00;1.00;;;;;;5050915;28;20444;-58
2022/03/08 04:56:55;;;;;;;7.78;4.85;;;0.00;1.00;;;;;;5047768;28;20533;-58
2022/03/08 04:59:22;;;;;;;7.22;4.80;;;0.00;1.00;;;;;;5052249;28;20459;-58
2022/03/08 05:01:49;;;;;;;8.23;4.95;;;0.10;1.00;;;;;;5051940;28;20487;-58
2022/03/08 05:04:16;;;;;;;7.70;5.18;;;0.10;1.00;;;;;;5041907;28;20449;-59
2022/03/08 05:06:43;;;;;;;8.52;4.80;;;0.10;1.00;;;;;;5050729;28;20467;-58
2022/03/08 05:09:10;;;;;;;9.15;4.22;;;0.20;1.00;;;;;;5050015;28;20456;-58
2022/03/08 05:11:37;;;;;;;8.13;4.82;;;0.20;1.00;;;;;;5048182;28;20447;-58
2022/03/08 05:14:05;;;;;;;5.00;3.80;;;0.10;1.00;;;;;;5040343;28;20449;-59
2022/03/08 05:16:33;;;;;;;6.22;3.22;;;0.00;1.00;;;;;;5042970;28;20610;-59
2022/03/08 05:18:59;;;;;;;7.35;4.47;;;-0.10;1.00;;;;;;5050668;28;20495;-58
2022/03/08 05:21:26;;;;;;;6.20;4.03;;;-0.10;1.00;;;;;;5044178;28;20543;-62
2022/03/08 05:23:53;;;;;;;5.30;3.47;;;0.00;1.00;;;;;;5048897;28;21044;-58
2022/03/08 05:26:20;;;;;;;8.13;3.92;;;0.00;1.00;;;;;;5047196;28;20496;-59
2022/03/08 05:28:47;;;;;;;5.30;3.40;;;0.10;1.00;;;;;;5047235;28;20433;-60
2022/03/08 05:31:16;;;;;;;7.33;3.80;;;0.10;1.00;;;;;;5044012;28;20925;-60
2022/03/08 05:33:43;;;;;;;7.13;4.25;;;0.00;1.00;;;;;;5051053;28;20516;-60
2022/03/08 05:36:09;;;;;;;8.10;4.20;;;0.00;1.00;;;;;;5054276;28;20786;-59
2022/03/08 05:38:36;;;;;;;7.30;4.60;;;0.00;1.00;;;;;;5048672;28;20432;-59
2022/03/08 05:41:03;;;;;;;7.82;4.82;;;0.00;1.00;;;;;;5052239;28;20523;-59
2022/03/08 05:43:30;;;;;;;8.45;3.97;;;0.00;1.00;;;;;;5056136;28;20512;-59
2022/03/08 05:45:57;;;;;;;6.75;4.32;;;-0.10;1.00;;;;;;5051015;28;20441;-59
2022/03/08 05:48:26;;;;;;;9.67;3.43;;;-0.10;1.00;;;;;;5053409;28;20428;-59
2022/03/08 05:50:52;;;;;;;7.22;3.80;;;-0.10;1.00;;;;;;5050474;28;20825;-59
2022/03/08 05:53:19;;;;;;;6.35;4.05;;;-0.10;1.00;;;;;;5056128;28;20504;-60
2022/03/08 05:55:46;;;;;;;8.30;3.75;;;-0.10;1.00;;;;;;5051326;28;20527;-59
2022/03/08 05:58:13;;;;;;;6.00;3.40;;;-0.10;1.00;;;;;;5056268;28;20523;-59
2022/03/08 06:00:40;;;;;;;6.65;3.50;;;0.00;1.00;;;;;;5050659;28;20431;-58
2022/03/08 06:03:07;;;;;;;4.05;2.40;;;0.00;1.00;;;;;;5056198;28;20452;-59
2022/03/08 06:05:36;;;;;;;4.28;2.70;;;0.40;1.00;;;;;;5051907;28;20461;-59
2022/03/08 06:08:04;;;;;;;12.67;4.03;;;0.60;1.00;;;;;;5054749;28;20436;-59
2022/03/08 06:10:32;;;;;;;7.40;3.58;;;1.00;1.00;;;;;;5052491;28;20429;-58
2022/03/08 06:12:58;;;;;;;8.07;4.10;;;1.60;1.00;;;;;;5055829;28;20812;-59
2022/03/08 06:15:25;;;;;;;6.50;3.55;;;2.00;1.00;;;;;;5049491;28;20522;-59
2022/03/08 06:17:52;;;;;;;4.95;2.70;;;2.20;1.00;;;;;;5048361;28;20746;-59
2022/03/08 06:20:20;;;;;;;5.32;3.20;;;2.10;1.00;;;;;;5050477;28;20445;-59
2022/03/08 06:22:48;;;;;;;6.80;2.90;;;2.10;1.00;;;;;;5056920;28;20424;-59
2022/03/08 06:25:15;;;;;;;4.60;3.00;;;2.20;1.00;;;;;;5048780;28;21322;-58
2022/03/08 06:27:42;;;;;;;8.02;4.57;;;2.40;1.00;;;;;;5045991;28;20500;-58
2022/03/08 06:30:10;;;;;;;4.43;3.35;;;2.50;1.00;;;;;;5048408;28;20536;-59
2022/03/08 06:32:37;;;;;;;6.20;3.50;;;2.40;1.00;;;;;;5056207;28;20852;-58
2022/03/08 06:35:05;;;;;;;4.97;3.38;;;2.50;1.00;;;;;;5052550;28;20530;-58
2022/03/08 06:37:32;;;;;;;4.65;3.05;;;2.90;1.00;;;;;;5055374;28;20516;-58
2022/03/08 06:40:01;;;;;;;4.85;2.55;;;3.10;1.00;;;;;;5049107;28;20445;-58
2022/03/08 06:42:29;;;;;;;4.97;2.65;;;3.10;1.00;;;;;;5052736;28;20465;-60
2022/03/08 06:44:55;;;;;;;4.87;3.40;;;3.20;1.00;;;;;;5054519;28;20436;-58
2022/03/08 06:47:23;;;;;;;5.32;3.40;;;3.20;1.00;;;;;;5052771;28;20773;-58
2022/03/08 06:49:49;;;;;;;5.78;2.78;;;3.00;99.90;;;;;;5050476;28;20521;-58
2022/03/08 06:52:17;;;;;;;5.85;3.38;;;2.80;1.00;;;;;;5051701;28;20420;-60
2022/03/08 06:54:43;;;;;;;6.30;3.17;;;3.00;1.00;;;;;;5050601;28;20512;-58
2022/03/08 06:57:12;;;;;;;5.95;3.58;;;3.30;1.00;;;;;;5049547;28;20519;-58
2022/03/08 06:59:39;;;;;;;3.70;2.30;;;3.40;1.00;;;;;;5050635;28;20730;-59
2022/03/08 07:02:07;;;;;;;5.32;2.70;;;3.40;99.90;;;;;;5051248;28;20511;-58
2022/03/08 07:04:34;;;;;;;9.38;5.20;;;3.40;99.90;;;;;;5052004;28;20488;-58
2022/03/08 07:07:01;;;;;;;6.53;2.63;;;3.00;99.90;;;;;;5051736;28;20437;-58
2022/03/08 07:09:28;;;;;;;5.38;2.97;;;2.90;99.90;;;;;;5053076;28;20449;-58
2022/03/08 07:11:55;;;;;;;5.25;3.20;;;2.80;99.90;;;;;;5052755;28;20457;-57
2022/03/08 07:14:23;;;;;;;3.38;2.03;;;2.40;99.90;;;;;;5052866;28;20487;-57
2022/03/08 07:16:50;;;;;;;6.53;3.07;;;2.60;99.90;;;;;;5051082;28;20433;-59
2022/03/08 07:19:18;;;;;;;3.40;2.40;;;2.80;99.90;;;;;;5054342;28;20504;-59
2022/03/08 07:21:46;;;;;;;3.40;1.70;;;2.90;99.90;;;;;;5052489;28;20819;-60
2022/03/08 07:24:13;;;;;;;4.20;2.10;;;3.00;99.90;;;;;;5055486;28;20457;-60
2022/03/08 07:26:40;;;;;;;4.40;2.10;;;3.40;99.90;;;;;;5061950;28;20542;-60
2022/03/08 07:29:07;;;;;;;4.55;2.28;;;3.40;99.90;;;;;;5053435;28;20507;-60
2022/03/08 07:31:35;;;;;;;3.85;1.80;;;3.30;99.90;;;;;;5051756;28;20444;-59
2022/03/08 07:34:02;;;;;;;5.75;2.50;;;3.40;99.90;;;;;;5053530;28;20417;-59
2022/03/08 07:36:29;;;;;;;4.97;2.55;;;3.30;99.90;;;;;;5052065;28;20536;-59
2022/03/08 07:38:56;;;;;;;7.45;2.70;;;3.30;99.90;;;;;;5053170;28;20460;-60
2022/03/08 07:41:23;;;;;;;6.82;3.42;;;3.40;99.90;;;;;;5052685;28;20518;-60
2022/03/08 07:43:50;;;;;;;3.30;2.60;;;3.60;99.90;;;;;;5053449;28;20745;-61
2022/03/08 07:46:17;;;;;;;3.78;2.08;;;3.50;99.90;;;;;;5052625;28;20495;-61
2022/03/08 07:48:46;;;;;;;3.67;2.30;;;3.50;99.90;;;;;;5054819;28;20496;-61
2022/03/08 07:51:12;;;;;;;3.87;1.97;;;3.60;99.90;;;;;;5053455;28;20907;-62
2022/03/08 07:53:39;;;;;;;6.17;2.63;;;3.70;99.90;;;;;;5052995;28;20464;-61
2022/03/08 07:56:06;;;;;;;4.18;1.90;;;3.50;99.90;;;;;;5047636;28;20510;-61
2022/03/08 07:58:37;;;;;;;4.38;2.20;;;3.00;99.90;;;;;;5047715;28;20803;-61
2022/03/08 08:01:04;;;;;;;4.07;2.03;;;2.80;99.90;;;;;;5052125;28;20487;-61
2022/03/08 08:03:32;;;;;;;2.40;1.70;;;2.80;99.90;;;;;;5052230;28;20480;-61
2022/03/08 08:06:01;;;;;;;4.82;2.03;;;2.90;99.90;;;;;;5046102;28;20867;-60
2022/03/08 08:08:28;;;;;;;2.60;1.50;;;3.10;99.90;;;;;;5043924;28;20879;-60
2022/03/08 08:10:55;;;;;;;3.10;1.60;;;3.40;99.90;;;;;;5050714;28;20801;-60
2022/03/08 08:13:22;;;;;;;3.47;2.10;;;3.50;99.90;;;;;;5048498;28;20552;-60
2022/03/08 08:15:49;;;;;;;2.35;1.80;;;3.50;99.90;;;;;;5048206;28;20464;-60
2022/03/08 08:18:16;;;;;;;3.65;1.63;;;3.40;99.90;;;;;;5048490;28;20468;-60
2022/03/08 08:20:43;;;;;;;3.47;1.60;;;3.50;99.90;;;;;;5048782;28;20520;-60
2022/03/08 08:23:11;;;;;;;2.92;2.00;;;3.70;99.90;;;;;;5048189;28;20453;-60
2022/03/08 08:25:38;;;;;;;4.78;1.90;;;3.60;99.90;;;;;;5049009;28;20433;-60
2022/03/08 08:28:06;;;;;;;4.07;2.00;;;3.40;99.90;;;;;;5043704;28;20423;-61
2022/03/08 08:30:33;;;;;;;3.85;2.17;;;3.40;99.90;;;;;;5041346;28;20436;-60
2022/03/08 08:33:01;;;;;;;2.90;1.77;;;3.20;99.90;;;;;;5049053;28;20417;-60
2022/03/08 08:35:28;;;;;;;3.55;1.67;;;3.20;99.90;;;;;;5051739;28;20460;-59
2022/03/08 08:37:55;;;;;;;3.08;1.70;;;3.50;99.90;;;;;;5051454;28;20440;-60
2022/03/08 08:40:23;;;;;;;3.45;2.00;;;3.70;99.90;;;;;;5049589;28;20433;-60
2022/03/08 08:42:50;;;;;;;3.38;1.98;;;3.90;99.90;;;;;;5051325;28;20465;-60
2022/03/08 08:45:17;;;;;;;2.92;1.75;;;4.00;99.90;;;;;;5049713;28;20534;-60
2022/03/08 08:47:44;;;;;;;3.88;2.00;;;4.00;99.90;;;;;;5052157;28;20418;-60
2022/03/08 08:50:11;;;;;;;3.08;1.95;;;4.10;99.90;;;;;;5049539;28;20493;-60
2022/03/08 08:52:39;;;;;;;3.97;1.95;;;3.90;99.90;;;;;;5051786;28;20938;-60
2022/03/08 08:55:06;;;;;;;4.53;1.67;;;3.90;99.90;;;;;;5055292;28;20781;-60
2022/03/08 08:57:35;;;;;;;4.85;2.05;;;3.90;99.90;;;;;;5050705;28;20440;-60
2022/03/08 09:00:02;;;;;;;2.65;1.50;;;4.10;99.90;;;;;;5050209;28;20806;-60
2022/03/08 09:02:29;;;;;;;2.73;1.40;;;4.40;99.90;;;;;;5051439;28;20559;-60
2022/03/08 09:04:56;;;;;;;2.30;1.30;;;4.60;99.90;;;;;;5050664;28;20425;-60
2022/03/08 09:07:23;;;;;;;2.40;1.50;;;4.60;99.90;;;;;;5058690;28;20423;-61
2022/03/08 09:09:50;;;;;;;2.60;1.70;;;4.60;99.90;;;;;;5049087;28;20475;-59
2022/03/08 09:12:18;;;;;;;2.67;1.50;;;4.50;99.90;;;;;;5049490;28;20487;-59
2022/03/08 09:14:46;;;;;;;2.50;1.60;;;4.50;99.90;;;;;;5052097;28;20805;-59
2022/03/08 09:17:13;;;;;;;2.20;1.40;;;4.60;99.90;;;;;;5052779;28;20833;-59
2022/03/08 09:19:40;;;;;;;2.20;1.27;;;4.70;99.90;;;;;;5049723;28;20437;-59
2022/03/08 09:22:07;;;;;;;2.15;1.30;;;4.60;99.90;;;;;;5046962;28;20431;-58
2022/03/08 09:24:35;;;;;;;2.70;1.30;;;4.70;99.90;;;;;;5048671;28;20434;-59
2022/03/08 09:27:03;;;;;;;3.28;1.38;;;4.90;99.90;;;;;;5051796;28;20437;-59
2022/03/08 09:29:30;;;;;;;3.03;1.50;;;5.00;99.90;;;;;;5049353;28;20544;-59
2022/03/08 09:31:59;;;;;;;3.63;1.45;;;5.00;99.90;;;;;;5052244;28;20911;-59
2022/03/08 09:34:26;;;;;;;2.53;1.50;;;4.90;99.90;;;;;;5053561;28;20427;-60
2022/03/08 09:36:53;;;;;;;2.60;1.40;;;5.00;99.90;;;;;;5052311;28;20436;-60
2022/03/08 09:39:20;;;;;;;2.75;1.20;;;5.30;99.90;;;;;;5050839;28;20433;-60
2022/03/08 09:41:51;;;;;;;2.47;1.33;;;5.30;99.90;;;;;;5045145;28;20451;-59
2022/03/08 09:44:20;;;;;;;2.50;1.30;;;5.50;99.90;;;;;;5052483;28;20461;-60
2022/03/08 09:46:47;;;;;;;2.00;1.20;;;5.60;99.90;;;;;;5049256;28;20438;-61
2022/03/08 09:49:15;;;;;;;1.90;1.30;;;5.70;99.90;;;;;;5054838;28;21003;-60
2022/03/08 09:51:43;;;;;;;2.92;1.38;;;5.60;99.90;;;;;;5051709;28;21177;-60
2022/03/08 09:54:11;;;;;;;2.80;1.60;;;5.50;99.90;;;;;;5052553;28;20894;-60
2022/03/08 09:56:38;;;;;;;4.70;1.20;;;5.70;99.90;;;;;;5056170;28;20972;-60
2022/03/08 09:59:05;;;;;;;2.80;1.20;;;5.90;99.90;;;;;;5047964;28;20990;-60
2022/03/08 10:01:33;;;;;;;2.28;1.20;;;6.20;99.90;;;;;;5045380;28;20933;-60
2022/03/08 10:04:01;;;;;;;2.60;1.10;;;6.50;99.90;;;;;;5047003;28;20817;-60
2022/03/08 10:06:41;;;;;;;2.80;1.40;;;6.50;99.90;;;;;;5042510;28;20441;-60
2022/03/08 10:09:13;;;;;;;3.43;1.40;;;6.60;99.90;;;;;;5040782;28;20483;-60
2022/03/08 10:11:41;;;;;;;2.00;1.20;;;6.40;99.90;;;;;;5046507;28;20441;-58
2022/03/08 10:14:13;;;;;;;3.90;2.10;;;6.20;99.90;;;;;;5043136;28;20425;-58
2022/03/08 10:16:44;;;;;;;3.20;2.00;;;6.40;99.90;;;;;;5048755;28;20491;-59
2022/03/08 10:19:12;;;;;;;1.80;1.38;;;6.60;99.90;;;;;;5044231;28;20449;-59
2022/03/08 10:21:43;;;;;;;3.15;1.50;;;6.70;99.90;;;;;;5050535;28;21097;-59
2022/03/08 10:24:15;;;;;;;3.75;1.40;;;7.00;99.90;;;;;;5056624;28;20429;-60
2022/03/08 10:26:48;;;;;;;2.50;1.30;;;7.00;99.90;;;;;;5051828;28;20756;-60
2022/03/08 10:29:23;;;;;;;2.60;1.30;;;7.20;99.90;;;;;;5051238;28;20839;-60
2022/03/08 10:31:50;;;;;;;2.70;1.00;;;7.40;99.90;;;;;;5049401;28;20480;-59
2022/03/08 10:34:17;;;;;;;1.83;1.10;;;7.40;99.90;;;;;;5048877;28;20425;-58
2022/03/08 10:37:07;;;;;;;2.60;1.20;;;7.60;99.90;;;;;;5041017;28;20442;-57
2022/03/08 10:39:35;;;;;;;1.90;1.10;;;7.90;99.90;;;;;;5048714;28;20490;-58
2022/03/08 10:42:02;;;;;;;1.85;1.10;;;7.50;99.90;;;;;;5053746;28;20433;-58
2022/03/08 10:44:35;;;;;;;2.80;1.30;;;7.30;99.90;;;;;;5052555;28;21001;-59
2022/03/08 10:47:05;;;;;;;2.28;1.20;;;7.50;99.90;;;;;;5044986;28;20531;-55
2022/03/08 10:49:34;;;;;;;1.30;1.00;;;7.60;99.90;;;;;;5039805;28;20960;-56
2022/03/08 10:52:09;;;;;;;2.97;1.10;;;7.70;99.90;;;;;;5050878;28;20437;-57
2022/03/08 10:54:37;;;;;;;1.90;1.10;;;7.70;99.90;;;;;;5045303;28;20470;-59
2022/03/08 10:57:04;;;;;;;1.90;1.10;;;7.60;99.90;;;;;;5051049;28;20425;-57
2022/03/08 10:59:31;;;;;;;3.30;1.90;;;8.00;99.90;;;;;;5050890;28;20424;-58
2022/03/08 11:01:58;;;;;;;2.63;1.10;;;8.00;99.90;;;;;;5048853;28;20474;-57
2022/03/08 11:04:25;;;;;;;2.27;1.30;;;8.20;99.90;;;;;;5044975;28;20433;-58
2022/03/08 11:06:55;;;;;;;2.53;1.40;;;8.60;99.90;;;;;;5049840;28;20504;-57
2022/03/08 11:09:25;;;;;;;2.20;1.10;;;8.80;99.90;;;;;;5053041;28;20483;-56
2022/03/08 11:11:52;;;;;;;2.50;1.23;;;9.10;99.90;;;;;;5052500;28;21072;-58
2022/03/08 11:14:19;;;;;;;1.80;1.10;;;9.10;99.90;;;;;;5046296;28;20417;-58
2022/03/08 11:16:51;;;;;;;1.63;1.00;;;8.80;99.90;;;;;;5060581;28;20855;-58
2022/03/08 11:19:19;;;;;;;2.60;1.20;;;9.00;99.90;;;;;;5052456;28;20473;-58
2022/03/08 11:21:48;;;;;;;2.60;1.30;;;9.50;99.90;;;;;;5052537;28;20737;-58
2022/03/08 11:24:17;;;;;;;2.60;1.10;;;9.90;99.90;;;;;;5052864;28;20429;-58
2022/03/08 11:26:46;;;;;;;2.10;1.10;;;9.80;99.90;;;;;;5054620;28;20524;-58
2022/03/08 11:29:14;;;;;;;2.10;1.10;;;9.60;99.90;;;;;;5045976;28;20515;-58
2022/03/08 11:31:43;;;;;;;1.53;1.10;;;9.70;99.90;;;;;;5049670;28;20550;-59
2022/03/08 11:34:18;;;;;;;2.20;0.90;;;9.70;99.90;;;;;;5051160;28;20421;-59
2022/03/08 11:36:53;;;;;;;1.50;1.00;;;9.60;99.90;;;;;;5052348;28;20516;-58
2022/03/08 11:39:23;;;;;;;1.95;0.90;;;9.20;99.90;;;;;;5052968;28;20462;-59
2022/03/08 11:41:53;;;;;;;1.97;1.00;;;9.10;99.90;;;;;;5050696;28;20528;-59
2022/03/08 11:44:22;;;;;;;1.70;0.93;;;9.70;99.90;;;;;;5055865;28;20504;-58
2022/03/08 11:47:01;;;;;;;1.48;1.10;;;10.30;99.90;;;;;;5052950;28;21061;-58
2022/03/08 11:49:46;;;;;;;1.70;1.00;;;10.20;99.90;;;;;;5047021;28;20511;-57
2022/03/08 11:52:19;;;;;;;1.90;0.90;;;10.30;99.90;;;;;;5052030;28;20520;-59
2022/03/08 11:54:54;;;;;;;1.75;1.00;;;10.10;99.90;;;;;;5046940;28;20425;-58
2022/03/08 11:58:01;;;;;;;1.90;1.10;;;10.70;99.90;;;;;;5047808;28;20448;-60
2022/03/08 12:00:42;;;;;;;2.95;1.20;;;10.30;99.90;;;;;;5043201;28;20461;-59
2022/03/08 12:03:14;;;;;;;2.22;1.05;;;10.30;99.90;;;;;;5039491;28;20427;-60
2022/03/08 12:05:57;;;;;;;2.30;1.25;;;10.30;99.90;;;;;;5049371;28;20440;-60
2022/03/08 12:08:58;;;;;;;2.10;1.00;;;10.00;99.90;;;;;;5050973;28;20485;-60
2022/03/08 12:11:50;;;;;;;1.58;1.00;;;10.20;99.90;;;;;;5046334;28;20532;-60
2022/03/08 12:14:19;;;;;;;2.40;1.13;;;10.50;99.90;;;;;;5028671;28;20423;-59
2022/03/08 12:16:50;;;;;;;1.70;1.13;;;10.80;99.90;;;;;;5030930;28;20485;-60
2022/03/08 12:19:23;;;;;;;2.10;1.08;;;10.60;99.90;;;;;;5027509;28;20431;-61
2022/03/08 12:21:56;;;;;;;1.90;1.00;;;10.20;99.90;;;;;;5025935;28;20426;-60
2022/03/08 12:24:24;;;;;;;2.10;1.20;;;10.50;99.90;;;;;;5030252;28;20425;-60
2022/03/08 12:27:02;;;;;;;1.80;1.20;;;10.20;99.90;;;;;;5025236;28;20450;-61
2022/03/08 12:29:33;;;;;;;2.00;1.27;;;10.40;99.90;;;;;;5025319;28;20423;-60
2022/03/08 12:32:22;;;;;;;1.70;1.20;;;10.30;99.90;;;;;;5028592;28;20461;-60
2022/03/08 12:34:51;;;;;;;2.90;1.25;;;10.30;99.90;;;;;;5029313;28;20415;-60
2022/03/08 12:37:20;;;;;;;2.08;1.20;;;10.10;99.90;;;;;;5029447;28;20431;-60
2022/03/08 12:39:53;;;;;;;2.63;1.40;;;10.20;99.90;;;;;;5020969;28;20463;-59
2022/03/08 12:42:23;;;;;;;3.00;1.30;;;10.10;99.90;;;;;;5029874;28;20462;-60
2022/03/08 12:44:55;;;;;;;2.50;1.30;;;10.50;99.90;;;;;;5028861;28;20810;-60
2022/03/08 12:47:25;;;;;;;2.80;1.60;;;11.00;99.90;;;;;;5026587;28;20870;-60
2022/03/08 12:49:52;;;;;;;2.75;1.42;;;11.10;99.90;;;;;;5029689;28;20459;-60
2022/03/08 12:52:21;;;;;;;3.00;1.30;;;11.30;99.90;;;;;;5029980;28;20529;-61
2022/03/08 12:54:49;;;;;;;2.33;1.30;;;11.50;99.90;;;;;;5027356;28;20427;-58
2022/03/08 12:57:17;;;;;;;2.00;1.40;;;11.10;99.90;;;;;;5031745;28;20426;-58
2022/03/08 12:59:49;;;;;;;2.47;1.50;;;11.00;99.90;;;;;;5027781;28;20531;-58
2022/03/08 13:02:16;;;;;;;2.47;1.42;;;10.80;99.90;;;;;;5025842;28;20443;-60
2022/03/08 13:04:45;;;;;;;2.07;1.20;;;10.70;99.90;;;;;;5029159;28;20427;-62
2022/03/08 13:07:14;;;;;;;2.10;1.40;;;11.00;99.90;;;;;;5030601;28;20874;-61
2022/03/08 13:09:56;;;;;;;2.40;1.30;;;10.90;99.90;;;;;;5027912;28;20874;-62
2022/03/08 13:12:25;;;;;;;3.50;1.50;;;11.00;99.90;;;;;;5042904;28;20433;-63